createdAt,value
2019-03-09T00:00:04.430Z,75.94
2019-03-09T00:02:37.595Z,75.85
2019-03-09T00:05:09.642Z,75.89
2019-03-09T00:07:43.980Z,75.84
2019-03-09T00:10:18.848Z,75.63
2019-03-09T00:12:52.003Z,75.90
2019-03-09T00:15:23.889Z,76.10
2019-03-09T00:17:58.741Z,76.06
2019-03-09T00:20:32.669Z,76.16
2019-03-09T00:23:15.231Z,76.14
2019-03-09T00:26:08.669Z,76.08
2019-03-09T00:28:48.008Z,76.20
2019-03-09T00:31:31.298Z,76.15
2019-03-09T00:34:04.932Z,76.14
2019-03-09T00:36:37.778Z,76.15
2019-03-09T00:39:09.639Z,76.26
2019-03-09T00:41:44.227Z,76.13
2019-03-09T00:44:15.773Z,76.30
2019-03-09T00:46:47.388Z,76.09
2019-03-09T00:49:18.967Z,76.33
2019-03-09T00:51:50.558Z,76.23
2019-03-09T00:54:22.118Z,75.92
2019-03-09T00:56:55.774Z,75.98
2019-03-09T00:59:29.788Z,76.18
2019-03-09T01:02:01.474Z,76.10
2019-03-09T01:04:33.129Z,76.27
2019-03-09T01:07:04.738Z,76.02
2019-03-09T01:09:36.298Z,76.36
2019-03-09T01:12:14.724Z,76.17
2019-03-09T01:14:49.911Z,75.99
2019-03-09T01:17:21.451Z,75.86
2019-03-09T01:19:55.742Z,76.04
2019-03-09T01:22:27.283Z,75.97
2019-03-09T01:25:01.921Z,75.63
2019-03-09T01:27:33.575Z,76.00
2019-03-09T01:30:10.071Z,76.02
2019-03-09T01:32:41.625Z,76.15
2019-03-09T01:35:13.187Z,76.24
2019-03-09T01:37:50.415Z,76.29
2019-03-09T01:40:21.988Z,76.20
2019-03-09T01:42:53.541Z,75.77
2019-03-09T01:45:25.087Z,75.64
2019-03-09T01:47:59.811Z,75.75
2019-03-09T01:50:33.147Z,75.76
2019-03-09T01:53:04.684Z,75.60
2019-03-09T01:55:36.234Z,75.46
2019-03-09T01:58:08.995Z,75.43
2019-03-09T02:00:42.445Z,75.30
2019-03-09T02:03:13.999Z,75.03
2019-03-09T02:05:45.577Z,74.23
2019-03-09T02:08:17.233Z,73.85
2019-03-09T02:10:48.810Z,73.14
2019-03-09T02:13:20.364Z,72.72
2019-03-09T02:15:54.734Z,72.61
2019-03-09T02:18:26.339Z,72.05
2019-03-09T02:20:57.897Z,71.84
2019-03-09T02:23:30.915Z,71.73
2019-03-09T02:26:02.469Z,71.82
2019-03-09T02:28:38.693Z,71.90
2019-03-09T02:31:10.257Z,71.66
2019-03-09T02:33:43.993Z,72.00
2019-03-09T02:36:16.641Z,72.01
2019-03-09T02:39:07.086Z,71.65
2019-03-09T02:41:42.026Z,71.51
2019-03-09T02:44:18.863Z,71.76
2019-03-09T02:46:50.432Z,71.70
2019-03-09T02:49:24.367Z,71.88
2019-03-09T02:51:55.925Z,72.02
2019-03-09T02:54:27.467Z,71.96
2019-03-09T02:56:59.062Z,72.05
2019-03-09T02:59:33.543Z,71.73
2019-03-09T03:02:14.820Z,71.66
2019-03-09T03:04:46.349Z,71.37
2019-03-09T03:07:17.911Z,71.53
2019-03-09T03:09:49.468Z,71.57
2019-03-09T03:12:21.012Z,71.59
2019-03-09T03:14:52.589Z,71.80
2019-03-09T03:17:24.119Z,72.15
2019-03-09T03:19:55.658Z,72.36
2019-03-09T03:22:27.199Z,72.31
2019-03-09T03:24:58.824Z,72.19
2019-03-09T03:27:30.360Z,71.81
2019-03-09T03:30:01.990Z,72.04
2019-03-09T03:32:35.906Z,71.66
2019-03-09T03:35:08.575Z,71.60
2019-03-09T03:37:40.130Z,71.25
2019-03-09T03:40:11.823Z,71.20
2019-03-09T03:42:43.358Z,70.87
2019-03-09T03:45:15.030Z,70.92
2019-03-09T03:47:46.550Z,70.52
2019-03-09T03:50:20.059Z,70.64
2019-03-09T03:52:51.608Z,70.73
2019-03-09T03:55:23.166Z,71.58
2019-03-09T03:57:54.797Z,71.57
2019-03-09T04:00:26.353Z,71.43
2019-03-09T04:02:59.190Z,70.79
2019-03-09T04:05:30.839Z,70.67
2019-03-09T04:08:02.566Z,70.76
2019-03-09T04:10:34.129Z,70.72
2019-03-09T04:13:05.663Z,70.71
2019-03-09T04:15:37.217Z,70.48
2019-03-09T04:18:08.742Z,70.00
2019-03-09T04:20:40.324Z,69.88
2019-03-09T04:23:11.834Z,69.54
2019-03-09T04:25:43.382Z,69.42
2019-03-09T04:28:14.924Z,69.19
2019-03-09T04:30:46.459Z,68.95
2019-03-09T04:33:20.034Z,68.83
2019-03-09T04:35:51.281Z,69.20
2019-03-09T04:38:22.809Z,68.90
2019-03-09T04:40:54.377Z,68.37
2019-03-09T04:43:25.927Z,68.17
2019-03-09T04:45:57.484Z,68.88
2019-03-09T04:48:29.054Z,68.75
2019-03-09T04:51:00.587Z,68.91
2019-03-09T04:53:32.167Z,68.84
2019-03-09T04:56:03.732Z,68.94
2019-03-09T04:58:35.279Z,68.97
2019-03-09T05:01:06.854Z,68.93
2019-03-09T05:03:38.400Z,70.01
2019-03-09T05:06:14.048Z,70.46
2019-03-09T05:09:19.113Z,71.42
2019-03-09T05:11:50.672Z,71.68
2019-03-09T05:14:25.673Z,71.56
2019-03-09T05:16:57.303Z,70.88
2019-03-09T05:19:28.857Z,71.22
2019-03-09T05:22:00.397Z,71.48
2019-03-09T05:24:33.294Z,71.92
2019-03-09T05:27:04.788Z,72.64
2019-03-09T05:29:36.350Z,71.94
2019-03-09T05:32:07.892Z,72.21
2019-03-09T05:34:39.438Z,72.83
2019-03-09T05:37:10.990Z,72.65
2019-03-09T05:39:42.538Z,72.19
2019-03-09T05:42:14.085Z,72.57
2019-03-09T05:44:45.788Z,72.45
2019-03-09T05:47:17.340Z,71.92
2019-03-09T05:49:48.890Z,73.21
2019-03-09T05:52:43.359Z,73.29
2019-03-09T05:55:20.483Z,73.80
2019-03-09T05:57:52.034Z,73.19
2019-03-09T06:00:23.667Z,73.46
2019-03-09T06:02:55.200Z,73.55
2019-03-09T06:05:51.573Z,73.74
2019-03-09T06:08:23.120Z,73.55
2019-03-09T06:10:54.674Z,73.85
2019-03-09T06:13:26.250Z,73.80
2019-03-09T06:15:57.788Z,73.54
2019-03-09T06:18:31.193Z,74.14
2019-03-09T06:21:02.759Z,74.45
2019-03-09T06:23:34.327Z,74.12
2019-03-09T06:26:06.052Z,74.51
2019-03-09T06:28:37.619Z,74.39
2019-03-09T06:31:09.167Z,74.88
2019-03-09T06:33:44.805Z,74.43
2019-03-09T06:37:01.023Z,74.68
2019-03-09T06:39:49.054Z,74.70
2019-03-09T06:42:49.700Z,74.77
2019-03-09T06:45:21.527Z,75.13
2019-03-09T06:47:54.299Z,74.98
2019-03-09T06:50:25.850Z,74.98
2019-03-09T06:52:57.440Z,75.41
2019-03-09T06:55:28.981Z,74.87
2019-03-09T06:58:00.626Z,75.13
2019-03-09T07:00:43.518Z,75.41
2019-03-09T07:03:15.095Z,75.35
2019-03-09T07:05:46.665Z,75.48
2019-03-09T07:08:18.400Z,74.71
2019-03-09T07:10:49.927Z,75.30
2019-03-09T07:13:21.520Z,75.13
2019-03-09T07:15:53.078Z,75.03
2019-03-09T07:18:32.038Z,75.18
2019-03-09T07:21:03.603Z,74.94
2019-03-09T07:23:35.196Z,75.42
2019-03-09T07:26:09.773Z,74.57
2019-03-09T07:28:43.066Z,75.16
2019-03-09T07:31:14.654Z,74.83
2019-03-09T07:33:46.195Z,75.02
2019-03-09T07:36:17.804Z,75.30
2019-03-09T07:38:50.384Z,75.54
2019-03-09T07:41:23.568Z,75.19
2019-03-09T07:43:55.133Z,75.07
2019-03-09T07:46:28.089Z,74.86
2019-03-09T07:48:59.650Z,74.61
2019-03-09T07:51:31.228Z,74.81
2019-03-09T07:54:02.778Z,74.68
2019-03-09T07:56:34.406Z,74.94
2019-03-09T07:59:05.995Z,75.06
2019-03-09T08:01:37.541Z,75.12
2019-03-09T08:04:09.103Z,75.45
2019-03-09T08:06:40.697Z,75.07
2019-03-09T08:09:12.254Z,75.27
2019-03-09T08:11:43.821Z,74.97
2019-03-09T08:14:15.370Z,74.89
2019-03-09T08:16:50.182Z,74.79
2019-03-09T08:19:21.765Z,74.56
2019-03-09T08:21:54.510Z,74.31
2019-03-09T08:24:28.858Z,74.28
2019-03-09T08:27:00.445Z,74.51
2019-03-09T08:29:32.027Z,74.39
2019-03-09T08:32:03.590Z,73.92
2019-03-09T08:34:35.193Z,74.16
2019-03-09T08:37:06.769Z,73.92
2019-03-09T08:39:38.369Z,73.61
2019-03-09T08:42:11.547Z,73.84
2019-03-09T08:44:43.117Z,73.80
2019-03-09T08:47:14.720Z,74.19
2019-03-09T08:49:46.332Z,74.31
2019-03-09T08:52:17.871Z,74.16
2019-03-09T08:54:49.580Z,74.22
2019-03-09T08:57:21.212Z,74.16
2019-03-09T08:59:52.777Z,74.53
2019-03-09T09:02:24.364Z,74.41
2019-03-09T09:04:56.000Z,74.43
2019-03-09T09:07:27.565Z,74.19
2019-03-09T09:09:59.310Z,74.17
2019-03-09T09:12:30.864Z,73.91
2019-03-09T09:15:02.436Z,74.05
2019-03-09T09:17:34.083Z,74.35
2019-03-09T09:20:07.350Z,74.32
2019-03-09T09:22:38.964Z,74.15
2019-03-09T09:25:11.065Z,74.20
2019-03-09T09:27:42.676Z,73.79
2019-03-09T09:30:25.962Z,74.44
2019-03-09T09:32:57.526Z,74.58
2019-03-09T09:35:29.074Z,74.97
2019-03-09T09:38:01.780Z,74.08
2019-03-09T09:40:33.472Z,73.79
2019-03-09T09:43:05.088Z,73.98
2019-03-09T09:45:36.672Z,73.50
2019-03-09T09:48:08.259Z,72.90
2019-03-09T09:50:39.883Z,73.11
2019-03-09T09:53:12.450Z,73.64
2019-03-09T09:55:44.023Z,73.31
2019-03-09T09:58:15.643Z,72.59
2019-03-09T10:00:47.208Z,72.86
2019-03-09T10:03:18.824Z,72.61
2019-03-09T10:05:50.386Z,72.33
2019-03-09T10:08:21.982Z,71.92
2019-03-09T10:10:53.555Z,71.85
2019-03-09T10:13:25.190Z,71.86
2019-03-09T10:15:56.763Z,71.20
2019-03-09T10:18:28.396Z,71.52
2019-03-09T10:20:59.985Z,71.39
2019-03-09T10:23:31.563Z,70.94
2019-03-09T10:26:03.124Z,71.16
2019-03-09T10:28:36.148Z,71.56
2019-03-09T10:31:07.731Z,71.77
2019-03-09T10:33:39.322Z,71.33
2019-03-09T10:36:10.887Z,71.75
2019-03-09T10:38:42.540Z,71.01
2019-03-09T10:41:14.136Z,71.02
2019-03-09T10:43:45.758Z,70.85
2019-03-09T10:46:17.345Z,71.16
2019-03-09T10:48:48.921Z,71.25
2019-03-09T10:51:20.496Z,70.88
2019-03-09T10:53:55.098Z,70.71
2019-03-09T10:56:26.658Z,70.33
2019-03-09T10:58:58.259Z,70.91
2019-03-09T11:01:32.022Z,70.31
2019-03-09T11:04:03.592Z,70.29
2019-03-09T11:06:35.242Z,70.43
2019-03-09T11:09:10.500Z,70.71
2019-03-09T11:11:42.127Z,70.61
2019-03-09T11:14:13.789Z,70.41
2019-03-09T11:16:45.383Z,70.22
2019-03-09T11:19:17.010Z,69.96
2019-03-09T11:21:48.719Z,70.03
2019-03-09T11:24:20.265Z,70.03
2019-03-09T11:26:51.862Z,70.23
2019-03-09T11:29:23.458Z,70.58
2019-03-09T11:31:55.085Z,69.93
2019-03-09T11:34:26.693Z,70.37
2019-03-09T11:36:58.236Z,70.02
2019-03-09T11:39:29.957Z,69.76
2019-03-09T11:42:01.530Z,69.57
2019-03-09T11:44:33.432Z,69.55
2019-03-09T11:47:04.998Z,69.35
2019-03-09T11:49:36.599Z,69.48
2019-03-09T11:52:08.131Z,69.74
2019-03-09T11:54:39.729Z,69.18
2019-03-09T11:57:11.335Z,68.95
2019-03-09T11:59:42.966Z,68.71
2019-03-09T12:02:16.020Z,68.79
2019-03-09T12:04:47.903Z,68.67
2019-03-09T12:07:19.466Z,68.09
2019-03-09T12:09:51.063Z,68.54
2019-03-09T12:12:22.634Z,68.19
2019-03-09T12:14:54.301Z,68.42
2019-03-09T12:17:25.863Z,68.63
2019-03-09T12:19:58.944Z,68.53
2019-03-09T12:22:30.856Z,68.37
2019-03-09T12:25:02.450Z,68.51
2019-03-09T12:27:35.170Z,68.81
2019-03-09T12:30:09.999Z,69.09
2019-03-09T12:32:41.582Z,68.17
2019-03-09T12:35:13.340Z,68.43
2019-03-09T12:37:44.931Z,68.66
2019-03-09T12:40:18.017Z,68.69
2019-03-09T12:42:49.602Z,68.61
2019-03-09T12:45:22.319Z,69.13
2019-03-09T12:47:53.984Z,69.91
2019-03-09T12:50:26.710Z,70.44
2019-03-09T12:52:58.365Z,69.82
2019-03-09T12:55:30.003Z,69.69
2019-03-09T12:58:01.631Z,69.79
2019-03-09T13:00:33.201Z,69.39
2019-03-09T13:03:04.812Z,69.17
2019-03-09T13:05:36.379Z,69.17
2019-03-09T13:08:08.043Z,68.90
2019-03-09T13:10:42.630Z,69.06
2019-03-09T13:13:14.227Z,69.12
2019-03-09T13:15:45.809Z,69.10
2019-03-09T13:18:17.410Z,69.26
2019-03-09T13:20:48.980Z,69.45
2019-03-09T13:23:20.617Z,69.49
2019-03-09T13:25:52.337Z,69.42
2019-03-09T13:28:25.003Z,69.05
2019-03-09T13:30:56.600Z,68.87
2019-03-09T13:33:28.241Z,69.06
2019-03-09T13:36:00.445Z,69.94
2019-03-09T13:38:33.652Z,70.38
2019-03-09T13:41:05.253Z,70.06
2019-03-09T13:43:36.835Z,69.72
2019-03-09T13:46:08.521Z,69.94
2019-03-09T13:48:40.139Z,70.10
2019-03-09T13:51:11.782Z,68.65
2019-03-09T13:53:43.473Z,69.40
2019-03-09T13:56:15.072Z,68.67
2019-03-09T13:58:46.651Z,68.65
2019-03-09T14:01:18.286Z,68.69
2019-03-09T14:03:49.868Z,69.04
2019-03-09T14:06:21.475Z,68.69
2019-03-09T14:08:53.050Z,69.57
2019-03-09T14:11:24.680Z,69.98
2019-03-09T14:13:56.257Z,71.06
2019-03-09T14:16:27.849Z,72.55
2019-03-09T14:18:59.492Z,72.79
2019-03-09T14:21:31.173Z,74.47
2019-03-09T14:24:02.796Z,75.56
2019-03-09T14:26:34.406Z,76.02
2019-03-09T14:29:07.055Z,75.84
2019-03-09T14:31:38.657Z,76.92
2019-03-09T14:34:10.254Z,78.48
2019-03-09T14:36:41.956Z,78.24
2019-03-09T14:39:14.753Z,78.24
2019-03-09T14:41:46.374Z,78.42
2019-03-09T14:44:17.963Z,78.89
2019-03-09T14:46:49.625Z,77.92
2019-03-09T14:49:21.214Z,78.14
2019-03-09T14:51:52.808Z,77.72
2019-03-09T14:54:25.472Z,77.71
2019-03-09T14:56:57.028Z,77.97
2019-03-09T14:59:28.656Z,77.42
2019-03-09T15:02:00.202Z,77.43
2019-03-09T15:04:33.152Z,77.16
2019-03-09T15:07:09.024Z,77.26
2019-03-09T15:09:41.632Z,76.54
2019-03-09T15:12:13.270Z,76.74
2019-03-09T15:14:46.345Z,75.96
2019-03-09T15:17:19.020Z,75.65
2019-03-09T15:19:52.250Z,75.14
2019-03-09T15:22:23.911Z,75.52
2019-03-09T15:24:55.526Z,74.63
2019-03-09T15:27:27.096Z,75.11
2019-03-09T15:29:58.695Z,74.75
2019-03-09T15:32:30.288Z,74.63
2019-03-09T15:35:03.136Z,74.63
2019-03-09T15:37:35.994Z,74.56
2019-03-09T15:40:07.815Z,74.62
2019-03-09T15:42:39.569Z,74.71
2019-03-09T15:45:12.131Z,74.29
2019-03-09T15:47:43.738Z,73.72
2019-03-09T15:50:15.622Z,73.63
2019-03-09T15:52:47.205Z,73.97
2019-03-09T15:55:18.806Z,73.79
2019-03-09T15:57:50.490Z,73.71
2019-03-09T16:00:22.135Z,73.94
2019-03-09T16:02:53.717Z,73.83
2019-03-09T16:05:25.323Z,73.53
2019-03-09T16:07:56.905Z,74.01
2019-03-09T16:10:28.602Z,73.85
2019-03-09T16:13:00.174Z,73.86
2019-03-09T16:15:31.783Z,73.66
2019-03-09T16:18:03.358Z,74.10
2019-03-09T16:20:34.959Z,74.10
2019-03-09T16:23:06.518Z,73.88
2019-03-09T16:25:38.138Z,73.73
2019-03-09T16:28:09.859Z,73.73
2019-03-09T16:30:41.448Z,73.78
2019-03-09T16:33:12.937Z,73.29
2019-03-09T16:35:44.599Z,73.72
2019-03-09T16:38:16.198Z,73.15
2019-03-09T16:40:47.842Z,73.23
2019-03-09T16:43:19.430Z,72.67
2019-03-09T16:45:51.092Z,72.45
2019-03-09T16:48:22.672Z,72.16
2019-03-09T16:50:54.387Z,71.50
2019-03-09T16:53:26.101Z,71.19
2019-03-09T16:55:57.728Z,70.64
2019-03-09T16:58:29.320Z,70.69
2019-03-09T17:01:00.963Z,70.50
2019-03-09T17:03:33.646Z,70.06
2019-03-09T17:06:05.268Z,69.64
2019-03-09T17:08:36.895Z,69.46
2019-03-09T17:11:08.659Z,68.83
2019-03-09T17:13:40.281Z,69.28
2019-03-09T17:16:11.882Z,69.03
2019-03-09T17:18:43.474Z,68.64
2019-03-09T17:21:16.143Z,68.44
2019-03-09T17:23:49.224Z,68.08
2019-03-09T17:26:20.804Z,67.43
2019-03-09T17:28:57.900Z,67.09
2019-03-09T17:31:29.508Z,67.59
2019-03-09T17:34:02.949Z,67.64
2019-03-09T17:36:37.354Z,67.56
2019-03-09T17:39:11.344Z,67.82
2019-03-09T17:41:42.996Z,66.69
2019-03-09T17:44:14.596Z,66.52
2019-03-09T17:46:46.188Z,66.57
2019-03-09T17:49:17.756Z,65.63
2019-03-09T17:51:51.662Z,65.53
2019-03-09T17:54:24.820Z,65.50
2019-03-09T17:56:57.653Z,65.37
2019-03-09T17:59:30.870Z,65.89
2019-03-09T18:02:02.503Z,65.76
2019-03-09T18:04:34.077Z,65.70
2019-03-09T18:07:05.727Z,65.25
2019-03-09T18:09:37.313Z,65.34
2019-03-09T18:12:08.926Z,65.16
2019-03-09T18:14:45.489Z,65.33
2019-03-09T18:17:19.585Z,65.19
2019-03-09T18:19:52.434Z,64.84
2019-03-09T18:22:31.285Z,64.91
2019-03-09T18:25:04.084Z,65.22
2019-03-09T18:27:37.320Z,65.56
2019-03-09T18:30:10.441Z,65.39
2019-03-09T18:32:44.842Z,65.75
2019-03-09T18:35:20.574Z,65.69
2019-03-09T18:37:52.163Z,65.54
2019-03-09T18:40:29.584Z,64.92
2019-03-09T18:43:01.187Z,64.48
2019-03-09T18:45:32.820Z,64.25
2019-03-09T18:48:07.253Z,64.63
2019-03-09T18:50:40.602Z,64.06
2019-03-09T18:53:12.213Z,63.64
2019-03-09T18:55:46.520Z,63.72
2019-03-09T18:58:19.845Z,63.56
2019-03-09T19:01:01.592Z,63.38
2019-03-09T19:03:34.327Z,63.41
2019-03-09T19:06:09.140Z,63.32
2019-03-09T19:08:40.748Z,63.39
2019-03-09T19:11:18.450Z,63.79
2019-03-09T19:13:57.506Z,64.08
2019-03-09T19:16:34.876Z,64.12
2019-03-09T19:19:06.471Z,63.73
2019-03-09T19:21:38.270Z,63.73
2019-03-09T19:24:14.984Z,63.71
2019-03-09T19:26:46.587Z,64.05
2019-03-09T19:29:21.729Z,64.16
2019-03-09T19:31:55.001Z,64.11
2019-03-09T19:34:30.670Z,64.46
2019-03-09T19:37:02.282Z,64.36
2019-03-09T19:39:36.760Z,64.45
2019-03-09T19:42:13.152Z,63.85
2019-03-09T19:44:44.755Z,63.99
2019-03-09T19:47:16.363Z,64.17
2019-03-09T19:49:49.559Z,64.22
2019-03-09T19:52:21.162Z,63.92
2019-03-09T19:54:55.788Z,64.33
2019-03-09T19:57:29.989Z,64.17
2019-03-09T20:00:01.714Z,64.47
2019-03-09T20:02:35.701Z,64.26
2019-03-09T20:05:08.553Z,64.37
2019-03-09T20:07:41.902Z,64.35
2019-03-09T20:10:16.966Z,64.44
2019-03-09T20:12:48.642Z,64.28
2019-03-09T20:15:20.696Z,64.40
2019-03-09T20:17:53.334Z,64.06
2019-03-09T20:20:27.267Z,64.25
2019-03-09T20:23:06.321Z,64.51
2019-03-09T20:25:37.981Z,64.62
2019-03-09T20:28:11.223Z,64.46
2019-03-09T20:30:43.948Z,64.61
2019-03-09T20:33:15.629Z,64.30
2019-03-09T20:35:47.247Z,64.27
2019-03-09T20:38:18.900Z,64.24
2019-03-09T20:40:50.648Z,64.25
2019-03-09T20:43:22.244Z,64.36
2019-03-09T20:45:55.599Z,64.58
2019-03-09T20:48:30.521Z,64.70
2019-03-09T20:51:04.253Z,64.50
2019-03-09T20:53:35.904Z,64.35
2019-03-09T20:56:07.778Z,64.62
2019-03-09T20:58:44.085Z,64.66
2019-03-09T21:01:20.517Z,64.64
2019-03-09T21:03:53.653Z,64.61
2019-03-09T21:06:25.689Z,64.35
2019-03-09T21:08:57.329Z,64.44
2019-03-09T21:11:31.686Z,64.35
2019-03-09T21:14:06.159Z,64.63
2019-03-09T21:16:37.748Z,64.79
2019-03-09T21:19:09.566Z,64.61
2019-03-09T21:21:42.748Z,64.40
2019-03-09T21:24:17.428Z,64.37
2019-03-09T21:26:50.727Z,64.59
2019-03-09T21:29:33.187Z,64.01
2019-03-09T21:32:11.045Z,63.88
2019-03-09T21:34:42.644Z,64.15
2019-03-09T21:37:14.282Z,63.65
2019-03-09T21:39:47.494Z,63.44
2019-03-09T21:42:24.088Z,63.51
2019-03-09T21:44:55.701Z,63.63
2019-03-09T21:47:28.427Z,62.84
2019-03-09T21:50:00.026Z,63.23
2019-03-09T21:52:36.698Z,63.07
2019-03-09T21:55:10.326Z,62.79
2019-03-09T21:57:43.764Z,62.97
2019-03-09T22:00:17.084Z,62.84
2019-03-09T22:02:50.701Z,62.71
2019-03-09T22:05:27.923Z,62.65
2019-03-09T22:08:01.323Z,62.91
2019-03-09T22:10:33.934Z,63.05
2019-03-09T22:13:11.806Z,63.35
2019-03-09T22:15:56.264Z,63.78
2019-03-09T22:18:29.493Z,64.39
2019-03-09T22:21:01.142Z,65.03
2019-03-09T22:23:32.736Z,65.83
2019-03-09T22:26:05.521Z,66.19
2019-03-09T22:28:39.872Z,66.69
2019-03-09T22:31:15.974Z,67.01
2019-03-09T22:33:49.086Z,67.58
2019-03-09T22:36:23.868Z,67.90
2019-03-09T22:38:54.166Z,68.45
2019-03-09T22:41:28.703Z,68.92
2019-03-09T22:44:01.289Z,69.19
2019-03-09T22:46:34.532Z,69.74
2019-03-09T22:49:06.093Z,70.07
2019-03-09T22:51:41.189Z,70.19
2019-03-09T22:54:15.537Z,70.37
2019-03-09T22:56:47.137Z,70.67
2019-03-09T22:59:18.709Z,70.98
2019-03-09T23:01:50.329Z,71.00
2019-03-09T23:04:26.296Z,71.23
2019-03-09T23:06:57.583Z,71.15
2019-03-09T23:09:30.128Z,71.03
2019-03-09T23:12:01.735Z,71.05
2019-03-09T23:14:34.442Z,71.24
2019-03-09T23:17:08.554Z,70.99
2019-03-09T23:19:40.168Z,71.12
2019-03-09T23:22:11.775Z,70.85
2019-03-09T23:24:43.333Z,70.86
2019-03-09T23:27:16.979Z,70.80
2019-03-09T23:29:50.691Z,70.61
2019-03-09T23:32:21.979Z,70.87
2019-03-09T23:34:55.080Z,70.83
2019-03-09T23:37:26.716Z,70.74
2019-03-09T23:39:58.322Z,71.36
2019-03-09T23:42:29.900Z,71.24
2019-03-09T23:45:01.461Z,71.26
2019-03-09T23:47:36.204Z,71.54
2019-03-09T23:50:09.524Z,72.21
2019-03-09T23:52:41.073Z,72.44
2019-03-09T23:55:22.061Z,72.02
2019-03-09T23:57:47.322Z,71.62
